sensor_id;sensor_type;location;lat;lon;timestamp;pressure;altitude;pressure_sealevel;temperature;humidity
75886;BME280;64561;44.018;10.144;2023-10-31T00:00:19;100360.69;;;18.70;100.00
75886;BME280;64561;44.018;10.144;2023-10-31T00:02:47;100391.47;;;18.91;100.00
75886;BME280;64561;44.018;10.144;2023-10-31T00:05:14;100398.66;;;18.76;100.00
75886;BME280;64561;44.018;10.144;2023-10-31T00:07:43;100401.38;;;18.66;100.00
75886;BME280;64561;44.018;10.144;2023-10-31T00:10:10;100407.56;;;18.58;100.00
75886;BME280;64561;44.018;10.144;2023-10-31T00:12:38;100393.09;;;18.44;100.00
75886;BME280;64561;44.018;10.144;2023-10-31T00:15:06;100395.69;;;18.43;100.00
75886;BME280;64561;44.018;10.144;2023-10-31T00:17:36;100383.63;;;18.42;100.00
75886;BME280;64561;44.018;10.144;2023-10-31T00:20:03;100390.75;;;18.27;100.00
75886;BME280;64561;44.018;10.144;2023-10-31T00:22:31;100391.78;;;18.17;100.00
75886;BME280;64561;44.018;10.144;2023-10-31T00:24:58;100392.59;;;18.19;100.00
75886;BME280;64561;44.018;10.144;2023-10-31T00:27:25;100409.81;;;18.23;100.00
75886;BME280;64561;44.018;10.144;2023-10-31T00:29:52;100410.72;;;18.21;100.00
75886;BME280;64561;44.018;10.144;2023-10-31T00:32:19;100399.59;;;18.14;100.00
75886;BME280;64561;44.018;10.144;2023-10-31T00:34:47;100387.72;;;17.99;100.00
75886;BME280;64561;44.018;10.144;2023-10-31T00:37:14;100363.50;;;18.00;100.00
75886;BME280;64561;44.018;10.144;2023-10-31T00:39:41;100374.16;;;17.77;100.00
75886;BME280;64561;44.018;10.144;2023-10-31T00:42:08;100368.91;;;17.83;100.00
75886;BME280;64561;44.018;10.144;2023-10-31T00:44:35;100364.53;;;17.89;100.00
75886;BME280;64561;44.018;10.144;2023-10-31T00:47:02;100375.69;;;17.94;100.00
75886;BME280;64561;44.018;10.144;2023-10-31T00:49:32;100372.13;;;18.01;100.00
75886;BME280;64561;44.018;10.144;2023-10-31T00:51:59;100362.59;;;18.04;100.00
75886;BME280;64561;44.018;10.144;2023-10-31T00:54:26;100341.88;;;18.04;100.00
75886;BME280;64561;44.018;10.144;2023-10-31T00:56:54;100339.22;;;18.09;100.00
75886;BME280;64561;44.018;10.144;2023-10-31T00:59:21;100332.31;;;18.11;100.00
75886;BME280;64561;44.018;10.144;2023-10-31T01:01:48;100326.19;;;18.15;100.00
75886;BME280;64561;44.018;10.144;2023-10-31T01:04:16;100322.69;;;18.16;100.00
75886;BME280;64561;44.018;10.144;2023-10-31T01:06:44;100314.94;;;18.16;100.00
75886;BME280;64561;44.018;10.144;2023-10-31T01:09:11;100318.31;;;18.21;100.00
75886;BME280;64561;44.018;10.144;2023-10-31T01:11:40;100311.63;;;18.07;100.00
75886;BME280;64561;44.018;10.144;2023-10-31T01:14:07;100301.22;;;18.11;100.00
75886;BME280;64561;44.018;10.144;2023-10-31T01:16:34;100303.72;;;18.16;100.00
75886;BME280;64561;44.018;10.144;2023-10-31T01:19:02;100293.41;;;18.14;100.00
75886;BME280;64561;44.018;10.144;2023-10-31T01:21:29;100296.03;;;18.11;100.00
75886;BME280;64561;44.018;10.144;2023-10-31T01:23:58;100282.31;;;18.04;100.00
75886;BME280;64561;44.018;10.144;2023-10-31T01:26:25;100278.16;;;17.94;100.00
75886;BME280;64561;44.018;10.144;2023-10-31T01:28:53;100282.53;;;17.91;100.00
75886;BME280;64561;44.018;10.144;2023-10-31T01:31:20;100283.25;;;17.99;100.00
75886;BME280;64561;44.018;10.144;2023-10-31T01:33:47;100275.44;;;18.03;100.00
75886;BME280;64561;44.018;10.144;2023-10-31T01:36:15;100262.66;;;17.93;100.00
75886;BME280;64561;44.018;10.144;2023-10-31T01:38:42;100286.66;;;18.04;100.00
75886;BME280;64561;44.018;10.144;2023-10-31T01:41:09;100288.50;;;17.96;100.00
75886;BME280;64561;44.018;10.144;2023-10-31T01:43:37;100289.28;;;18.01;100.00
75886;BME280;64561;44.018;10.144;2023-10-31T01:46:04;100284.94;;;18.01;100.00
75886;BME280;64561;44.018;10.144;2023-10-31T01:48:32;100285.81;;;18.02;100.00
75886;BME280;64561;44.018;10.144;2023-10-31T01:51:02;100271.97;;;18.04;100.00
75886;BME280;64561;44.018;10.144;2023-10-31T01:53:32;100265.97;;;18.02;100.00
75886;BME280;64561;44.018;10.144;2023-10-31T01:56:01;100259.84;;;18.07;100.00
75886;BME280;64561;44.018;10.144;2023-10-31T01:58:31;100253.81;;;18.06;100.00
75886;BME280;64561;44.018;10.144;2023-10-31T02:01:00;100250.34;;;18.09;100.00
75886;BME280;64561;44.018;10.144;2023-10-31T02:03:34;100263.25;;;18.10;100.00
75886;BME280;64561;44.018;10.144;2023-10-31T02:06:02;100258.06;;;18.10;100.00
75886;BME280;64561;44.018;10.144;2023-10-31T02:08:30;100256.28;;;18.14;100.00
75886;BME280;64561;44.018;10.144;2023-10-31T02:11:01;100247.59;;;18.16;100.00
75886;BME280;64561;44.018;10.144;2023-10-31T02:13:36;100238.00;;;18.23;100.00
75886;BME280;64561;44.018;10.144;2023-10-31T02:16:06;100244.00;;;18.25;100.00
75886;BME280;64561;44.018;10.144;2023-10-31T02:18:39;100250.09;;;18.22;100.00
75886;BME280;64561;44.018;10.144;2023-10-31T02:21:10;100263.84;;;18.26;100.00
75886;BME280;64561;44.018;10.144;2023-10-31T02:23:39;100263.88;;;18.24;100.00
75886;BME280;64561;44.018;10.144;2023-10-31T02:26:09;100269.91;;;18.26;100.00
75886;BME280;64561;44.018;10.144;2023-10-31T02:28:37;100267.25;;;18.28;100.00
75886;BME280;64561;44.018;10.144;2023-10-31T02:31:12;100268.09;;;18.30;100.00
75886;BME280;64561;44.018;10.144;2023-10-31T02:33:48;100275.81;;;18.33;100.00
75886;BME280;64561;44.018;10.144;2023-10-31T02:36:15;100265.31;;;18.41;100.00
75886;BME280;64561;44.018;10.144;2023-10-31T02:38:42;100267.94;;;18.39;100.00
75886;BME280;64561;44.018;10.144;2023-10-31T02:41:09;100275.66;;;18.42;100.00
75886;BME280;64561;44.018;10.144;2023-10-31T02:43:37;100280.78;;;18.45;100.00
75886;BME280;64561;44.018;10.144;2023-10-31T02:46:05;100279.19;;;18.38;100.00
75886;BME280;64561;44.018;10.144;2023-10-31T02:48:32;100282.59;;;18.40;100.00
75886;BME280;64561;44.018;10.144;2023-10-31T02:51:08;100295.59;;;18.37;100.00
75886;BME280;64561;44.018;10.144;2023-10-31T02:53:35;100297.41;;;18.34;100.00
75886;BME280;64561;44.018;10.144;2023-10-31T02:56:03;100293.16;;;18.30;100.00
75886;BME280;64561;44.018;10.144;2023-10-31T02:58:31;100289.72;;;18.27;99.73
75886;BME280;64561;44.018;10.144;2023-10-31T03:00:58;100303.56;;;18.25;99.26
75886;BME280;64561;44.018;10.144;2023-10-31T03:03:25;100302.78;;;18.20;97.26
75886;BME280;64561;44.018;10.144;2023-10-31T03:05:52;100308.06;;;18.15;98.16
75886;BME280;64561;44.018;10.144;2023-10-31T03:08:20;100314.13;;;18.13;98.06
75886;BME280;64561;44.018;10.144;2023-10-31T03:10:48;100314.19;;;18.11;96.13
75886;BME280;64561;44.018;10.144;2023-10-31T03:13:18;100318.56;;;18.06;96.97
75886;BME280;64561;44.018;10.144;2023-10-31T03:15:46;100293.53;;;18.05;97.59
75886;BME280;64561;44.018;10.144;2023-10-31T03:18:13;100300.28;;;18.15;96.87
75886;BME280;64561;44.018;10.144;2023-10-31T03:20:45;100313.19;;;18.18;95.53
75886;BME280;64561;44.018;10.144;2023-10-31T03:23:15;100308.00;;;18.18;91.64
75886;BME280;64561;44.018;10.144;2023-10-31T03:25:42;100306.31;;;18.16;89.88
75886;BME280;64561;44.018;10.144;2023-10-31T03:28:19;100329.56;;;18.19;91.18
75886;BME280;64561;44.018;10.144;2023-10-31T03:30:47;100352.84;;;18.22;91.50
75886;BME280;64561;44.018;10.144;2023-10-31T03:33:15;100356.31;;;18.19;89.68
75886;BME280;64561;44.018;10.144;2023-10-31T03:35:46;100359.91;;;18.12;91.06
75886;BME280;64561;44.018;10.144;2023-10-31T03:38:13;100362.50;;;18.11;83.37
75886;BME280;64561;44.018;10.144;2023-10-31T03:40:41;100359.13;;;18.05;81.99
75886;BME280;64561;44.018;10.144;2023-10-31T03:43:12;100378.13;;;18.04;82.49
75886;BME280;64561;44.018;10.144;2023-10-31T03:45:39;100369.53;;;18.01;80.55
75886;BME280;64561;44.018;10.144;2023-10-31T03:48:07;100382.53;;;17.98;82.27
75886;BME280;64561;44.018;10.144;2023-10-31T03:50:34;100379.09;;;17.96;82.91
75886;BME280;64561;44.018;10.144;2023-10-31T03:53:01;100376.59;;;17.91;81.36
75886;BME280;64561;44.018;10.144;2023-10-31T03:55:28;100384.28;;;17.96;78.95
75886;BME280;64561;44.018;10.144;2023-10-31T03:57:57;100382.56;;;17.96;80.02
75886;BME280;64561;44.018;10.144;2023-10-31T04:00:24;100384.34;;;17.91;82.14
75886;BME280;64561;44.018;10.144;2023-10-31T04:02:51;100373.19;;;17.88;76.79
75886;BME280;64561;44.018;10.144;2023-10-31T04:05:18;100368.03;;;17.86;78.44
75886;BME280;64561;44.018;10.144;2023-10-31T04:07:46;100372.38;;;17.84;80.12
75886;BME280;64561;44.018;10.144;2023-10-31T04:10:14;100362.06;;;17.79;81.08
75886;BME280;64561;44.018;10.144;2023-10-31T04:12:41;100369.84;;;17.81;82.31
75886;BME280;64561;44.018;10.144;2023-10-31T04:15:09;100368.94;;;17.80;80.05
75886;BME280;64561;44.018;10.144;2023-10-31T04:17:40;100363.78;;;17.80;81.95
75886;BME280;64561;44.018;10.144;2023-10-31T04:20:07;100366.41;;;17.77;83.80
75886;BME280;64561;44.018;10.144;2023-10-31T04:22:35;100365.50;;;17.81;82.86
75886;BME280;64561;44.018;10.144;2023-10-31T04:25:03;100374.06;;;17.87;82.43
75886;BME280;64561;44.018;10.144;2023-10-31T04:27:31;100380.88;;;17.94;79.52
75886;BME280;64561;44.018;10.144;2023-10-31T04:29:58;100381.69;;;17.96;78.58
75886;BME280;64561;44.018;10.144;2023-10-31T04:32:25;100398.06;;;17.98;79.03
75886;BME280;64561;44.018;10.144;2023-10-31T04:34:52;100390.34;;;17.95;77.86
75886;BME280;64561;44.018;10.144;2023-10-31T04:37:19;100390.34;;;17.95;76.07
75886;BME280;64561;44.018;10.144;2023-10-31T04:39:46;100396.38;;;17.95;76.44
75886;BME280;64561;44.018;10.144;2023-10-31T04:42:14;100391.19;;;17.95;76.40
75886;BME280;64561;44.018;10.144;2023-10-31T04:44:41;100393.81;;;17.92;78.51
75886;BME280;64561;44.018;10.144;2023-10-31T04:47:08;100405.06;;;17.90;80.51
75886;BME280;64561;44.018;10.144;2023-10-31T04:49:35;100407.66;;;17.91;80.27
75886;BME280;64561;44.018;10.144;2023-10-31T04:52:02;100413.72;;;17.89;81.12
75886;BME280;64561;44.018;10.144;2023-10-31T04:54:30;100425.00;;;17.85;81.05
75886;BME280;64561;44.018;10.144;2023-10-31T04:56:57;100426.78;;;17.79;77.98
75886;BME280;64561;44.018;10.144;2023-10-31T04:59:24;100431.97;;;17.76;77.13
75886;BME280;64561;44.018;10.144;2023-10-31T05:01:52;100434.56;;;17.79;76.40
75886;BME280;64561;44.018;10.144;2023-10-31T05:04:19;100429.38;;;17.76;77.29
75886;BME280;64561;44.018;10.144;2023-10-31T05:06:46;100432.00;;;17.72;77.23
75886;BME280;64561;44.018;10.144;2023-10-31T05:09:14;100428.63;;;17.67;75.43
75886;BME280;64561;44.018;10.144;2023-10-31T05:11:42;100415.75;;;17.64;74.25
75886;BME280;64561;44.018;10.144;2023-10-31T05:14:09;100413.13;;;17.65;73.64
75886;BME280;64561;44.018;10.144;2023-10-31T05:16:40;100401.88;;;17.69;72.62
75886;BME280;64561;44.018;10.144;2023-10-31T05:19:08;100398.47;;;17.63;73.38
75886;BME280;64561;44.018;10.144;2023-10-31T05:21:36;100398.56;;;17.58;75.45
75886;BME280;64561;44.018;10.144;2023-10-31T05:24:04;100397.63;;;17.64;75.49
75886;BME280;64561;44.018;10.144;2023-10-31T05:26:31;100397.63;;;17.64;73.80
75886;BME280;64561;44.018;10.144;2023-10-31T05:28:58;100401.91;;;17.66;74.40
75886;BME280;64561;44.018;10.144;2023-10-31T05:31:26;100402.72;;;17.68;71.99
75886;BME280;64561;44.018;10.144;2023-10-31T05:33:53;100391.56;;;17.65;73.92
75886;BME280;64561;44.018;10.144;2023-10-31T05:36:22;100387.28;;;17.64;73.91
75886;BME280;64561;44.018;10.144;2023-10-31T05:38:50;100376.97;;;17.60;74.07
75886;BME280;64561;44.018;10.144;2023-10-31T05:41:17;100380.34;;;17.64;74.99
75886;BME280;64561;44.018;10.144;2023-10-31T05:43:44;100381.22;;;17.65;77.12
75886;BME280;64561;44.018;10.144;2023-10-31T05:46:11;100383.13;;;17.49;75.74
75886;BME280;64561;44.018;10.144;2023-10-31T05:48:44;100403.06;;;17.42;77.46
75886;BME280;64561;44.018;10.144;2023-10-31T05:51:12;100400.56;;;17.31;80.38
75886;BME280;64561;44.018;10.144;2023-10-31T05:53:41;100387.81;;;17.14;82.61
75886;BME280;64561;44.018;10.144;2023-10-31T05:56:09;100391.44;;;16.98;84.52
75886;BME280;64561;44.018;10.144;2023-10-31T05:58:37;100395.81;;;16.91;85.81
75886;BME280;64561;44.018;10.144;2023-10-31T06:01:05;100399.31;;;16.83;85.80
75886;BME280;64561;44.018;10.144;2023-10-31T06:03:32;100389.94;;;16.68;82.42
75886;BME280;64561;44.018;10.144;2023-10-31T06:06:00;100383.91;;;16.67;81.30
75886;BME280;64561;44.018;10.144;2023-10-31T06:08:27;100390.78;;;16.68;81.81
75886;BME280;64561;44.018;10.144;2023-10-31T06:10:56;100379.56;;;16.71;82.10
75886;BME280;64561;44.018;10.144;2023-10-31T06:13:24;100380.41;;;16.75;82.26
75886;BME280;64561;44.018;10.144;2023-10-31T06:15:55;100386.34;;;16.87;79.78
75886;BME280;64561;44.018;10.144;2023-10-31T06:18:27;100383.72;;;16.90;77.68
75886;BME280;64561;44.018;10.144;2023-10-31T06:20:55;100394.94;;;16.91;79.58
75886;BME280;64561;44.018;10.144;2023-10-31T06:23:23;100391.41;;;17.00;75.06
75886;BME280;64561;44.018;10.144;2023-10-31T06:25:50;100385.38;;;17.01;76.44
75886;BME280;64561;44.018;10.144;2023-10-31T06:28:17;100411.19;;;17.04;79.17
75886;BME280;64561;44.018;10.144;2023-10-31T06:30:45;100406.81;;;17.10;76.49
75886;BME280;64561;44.018;10.144;2023-10-31T06:33:12;100422.31;;;17.10;76.38
75886;BME280;64561;44.018;10.144;2023-10-31T06:35:39;100419.78;;;17.07;75.97
75886;BME280;64561;44.018;10.144;2023-10-31T06:38:06;100424.00;;;17.16;73.93
75886;BME280;64561;44.018;10.144;2023-10-31T06:40:34;100429.09;;;17.21;74.10
75886;BME280;64561;44.018;10.144;2023-10-31T06:43:01;100425.59;;;17.26;73.45
75886;BME280;64561;44.018;10.144;2023-10-31T06:45:28;100426.47;;;17.27;73.37
75886;BME280;64561;44.018;10.144;2023-10-31T06:47:56;100429.91;;;17.29;74.29
75886;BME280;64561;44.018;10.144;2023-10-31T06:50:24;100422.09;;;17.32;74.55
75886;BME280;64561;44.018;10.144;2023-10-31T06:52:51;100429.09;;;17.24;77.07
75886;BME280;64561;44.018;10.144;2023-10-31T06:55:18;100433.34;;;17.29;76.16
75886;BME280;64561;44.018;10.144;2023-10-31T06:57:45;100424.69;;;17.33;76.07
75886;BME280;64561;44.018;10.144;2023-10-31T07:00:13;100422.03;;;17.40;76.62
75886;BME280;64561;44.018;10.144;2023-10-31T07:02:40;100428.00;;;17.45;78.18
75886;BME280;64561;44.018;10.144;2023-10-31T07:05:08;100424.56;;;17.44;77.84
75886;BME280;64561;44.018;10.144;2023-10-31T07:07:36;100416.81;;;17.46;79.08
75886;BME280;64561;44.018;10.144;2023-10-31T07:10:03;100407.22;;;17.52;79.49
75886;BME280;64561;44.018;10.144;2023-10-31T07:12:31;100408.03;;;17.57;79.77
75886;BME280;64561;44.018;10.144;2023-10-31T07:14:58;100419.16;;;17.66;80.45
75886;BME280;64561;44.018;10.144;2023-10-31T07:17:25;100422.69;;;17.60;81.65
75886;BME280;64561;44.018;10.144;2023-10-31T07:19:53;100426.97;;;17.61;82.00
75886;BME280;64561;44.018;10.144;2023-10-31T07:22:20;100414.78;;;17.71;83.13
75886;BME280;64561;44.018;10.144;2023-10-31T07:24:52;100403.50;;;17.78;82.83
75886;BME280;64561;44.018;10.144;2023-10-31T07:27:19;100424.13;;;17.87;84.00
75886;BME280;64561;44.018;10.144;2023-10-31T07:29:46;100428.41;;;17.88;85.19
75886;BME280;64561;44.018;10.144;2023-10-31T07:32:17;100430.91;;;17.94;85.26
75886;BME280;64561;44.018;10.144;2023-10-31T07:34:45;100433.44;;;18.00;86.57
75886;BME280;64561;44.018;10.144;2023-10-31T07:37:12;100428.22;;;18.03;87.15
75886;BME280;64561;44.018;10.144;2023-10-31T07:39:39;100431.69;;;18.01;86.50
75886;BME280;64561;44.018;10.144;2023-10-31T07:42:06;100446.28;;;18.08;86.14
75886;BME280;64561;44.018;10.144;2023-10-31T07:44:35;100451.47;;;18.08;86.18
75886;BME280;64561;44.018;10.144;2023-10-31T07:47:02;100461.91;;;17.99;83.95
75886;BME280;64561;44.018;10.144;2023-10-31T07:49:30;100461.88;;;18.02;81.90
75886;BME280;64561;44.018;10.144;2023-10-31T07:51:57;100450.78;;;17.94;81.70
75886;BME280;64561;44.018;10.144;2023-10-31T07:54:24;100462.72;;;18.05;81.08
75886;BME280;64561;44.018;10.144;2023-10-31T07:56:51;100469.63;;;18.02;79.91
75886;BME280;64561;44.018;10.144;2023-10-31T07:59:18;100474.81;;;18.02;80.23
75886;BME280;64561;44.018;10.144;2023-10-31T08:01:45;100474.66;;;18.17;79.93
75886;BME280;64561;44.018;10.144;2023-10-31T08:04:13;100478.00;;;18.22;80.53
75886;BME280;64561;44.018;10.144;2023-10-31T08:06:42;100482.22;;;18.33;81.08
75886;BME280;64561;44.018;10.144;2023-10-31T08:09:09;100483.81;;;18.40;79.78
75886;BME280;64561;44.018;10.144;2023-10-31T08:11:36;100494.22;;;18.37;81.07
75886;BME280;64561;44.018;10.144;2023-10-31T08:14:03;100502.81;;;18.42;79.67
75886;BME280;64561;44.018;10.144;2023-10-31T08:16:30;100507.22;;;18.34;79.95
75886;BME280;64561;44.018;10.144;2023-10-31T08:18:58;100521.94;;;18.32;76.08
75886;BME280;64561;44.018;10.144;2023-10-31T08:21:25;100540.06;;;18.32;76.31
75886;BME280;64561;44.018;10.144;2023-10-31T08:23:55;100537.56;;;18.25;76.84
75886;BME280;64561;44.018;10.144;2023-10-31T08:26:22;100557.38;;;18.30;75.31
75886;BME280;64561;44.018;10.144;2023-10-31T08:28:49;100554.88;;;18.23;77.10
75886;BME280;64561;44.018;10.144;2023-10-31T08:31:16;100561.75;;;18.23;78.18
75886;BME280;64561;44.018;10.144;2023-10-31T08:33:43;100567.75;;;18.28;75.76
75886;BME280;64561;44.018;10.144;2023-10-31T08:36:10;100574.66;;;18.26;76.45
75886;BME280;64561;44.018;10.144;2023-10-31T08:38:37;100585.09;;;18.20;79.26
75886;BME280;64561;44.018;10.144;2023-10-31T08:41:05;100600.75;;;18.12;79.04
75886;BME280;64561;44.018;10.144;2023-10-31T08:43:32;100601.63;;;18.11;79.62
75886;BME280;64561;44.018;10.144;2023-10-31T08:45:59;100620.59;;;18.12;77.14
75886;BME280;64561;44.018;10.144;2023-10-31T08:48:27;100636.09;;;18.16;76.52
75886;BME280;64561;44.018;10.144;2023-10-31T08:50:54;100623.28;;;18.01;80.34
75886;BME280;64561;44.018;10.144;2023-10-31T08:53:21;100637.28;;;17.85;81.73
75886;BME280;64561;44.018;10.144;2023-10-31T08:55:49;100645.13;;;17.72;83.18
75886;BME280;64561;44.018;10.144;2023-10-31T08:58:16;100647.72;;;17.69;82.37
75886;BME280;64561;44.018;10.144;2023-10-31T09:00:45;100652.94;;;17.63;83.37
75886;BME280;64561;44.018;10.144;2023-10-31T09:03:12;100660.63;;;17.72;84.40
75886;BME280;64561;44.018;10.144;2023-10-31T09:05:40;100662.31;;;17.76;80.14
75886;BME280;64561;44.018;10.144;2023-10-31T09:08:07;100676.13;;;17.81;80.67
75886;BME280;64561;44.018;10.144;2023-10-31T09:10:36;100676.88;;;17.94;81.86
75886;BME280;64561;44.018;10.144;2023-10-31T09:13:05;100672.50;;;17.98;78.81
75886;BME280;64561;44.018;10.144;2023-10-31T09:15:34;100681.94;;;18.07;77.82
75886;BME280;64561;44.018;10.144;2023-10-31T09:18:01;100694.06;;;18.03;77.50
75886;BME280;64561;44.018;10.144;2023-10-31T09:20:29;100697.47;;;18.07;77.08
75886;BME280;64561;44.018;10.144;2023-10-31T09:22:56;100699.09;;;18.18;77.03
75886;BME280;64561;44.018;10.144;2023-10-31T09:25:24;100708.41;;;18.35;75.35
75886;BME280;64561;44.018;10.144;2023-10-31T09:27:51;100709.97;;;18.52;76.07
75886;BME280;64561;44.018;10.144;2023-10-31T09:30:18;100715.03;;;18.63;76.41
75886;BME280;64561;44.018;10.144;2023-10-31T09:32:45;100708.91;;;18.72;75.42
75886;BME280;64561;44.018;10.144;2023-10-31T09:35:13;100725.13;;;18.91;75.06
75886;BME280;64561;44.018;10.144;2023-10-31T09:37:40;100736.31;;;18.94;74.32
75886;BME280;64561;44.018;10.144;2023-10-31T09:52:32;100745.03;;;18.87;73.72
75886;BME280;64561;44.018;10.144;2023-10-31T09:54:59;100752.00;;;18.84;74.28
75886;BME280;64561;44.018;10.144;2023-10-31T09:57:29;100753.66;;;18.91;71.35
75886;BME280;64561;44.018;10.144;2023-10-31T09:59:57;100766.66;;;18.88;72.56
75886;BME280;64561;44.018;10.144;2023-10-31T10:02:24;100768.47;;;18.80;71.17
75886;BME280;64561;44.018;10.144;2023-10-31T10:04:52;100771.72;;;18.97;72.01
75886;BME280;64561;44.018;10.144;2023-10-31T10:07:20;100770.66;;;19.16;69.88
75886;BME280;64561;44.018;10.144;2023-10-31T10:09:47;100775.63;;;19.30;70.13
75886;BME280;64561;44.018;10.144;2023-10-31T10:12:16;100767.81;;;19.33;69.26
75886;BME280;64561;44.018;10.144;2023-10-31T10:14:46;100773.91;;;19.31;69.67
75886;BME280;64561;44.018;10.144;2023-10-31T10:17:20;100774.91;;;19.21;70.32
75886;BME280;64561;44.018;10.144;2023-10-31T10:20:00;100774.06;;;19.18;72.42
75886;BME280;64561;44.018;10.144;2023-10-31T10:22:31;100780.06;;;19.24;73.06
75886;BME280;64561;44.018;10.144;2023-10-31T10:24:58;100770.44;;;19.32;71.96
75886;BME280;64561;44.018;10.144;2023-10-31T10:27:25;100774.53;;;19.48;69.30
75886;BME280;64561;44.018;10.144;2023-10-31T10:29:53;100774.50;;;19.53;68.10
75886;BME280;64561;44.018;10.144;2023-10-31T10:32:20;100777.97;;;19.49;67.90
75886;BME280;64561;44.018;10.144;2023-10-31T10:34:48;100778.03;;;19.46;67.29
75886;BME280;64561;44.018;10.144;2023-10-31T10:37:16;100774.41;;;19.57;67.73
75886;BME280;64561;44.018;10.144;2023-10-31T10:39:48;100774.34;;;19.62;68.07
75886;BME280;64561;44.018;10.144;2023-10-31T10:42:47;100784.75;;;19.60;67.84
75886;BME280;64561;44.018;10.144;2023-10-31T10:45:16;100786.50;;;19.60;67.21
75886;BME280;64561;44.018;10.144;2023-10-31T10:47:47;100782.22;;;19.56;67.52
75886;BME280;64561;44.018;10.144;2023-10-31T10:50:14;100772.78;;;19.50;67.14
75886;BME280;64561;44.018;10.144;2023-10-31T10:55:21;100778.75;;;19.57;66.23
75886;BME280;64561;44.018;10.144;2023-10-31T10:58:05;100784.06;;;19.48;66.48
75886;BME280;64561;44.018;10.144;2023-10-31T11:00:36;100785.94;;;19.36;66.76
75886;BME280;64561;44.018;10.144;2023-10-31T11:03:04;100793.84;;;19.29;68.66
75886;BME280;64561;44.018;10.144;2023-10-31T11:05:33;100794.56;;;19.38;68.12
75886;BME280;64561;44.018;10.144;2023-10-31T11:08:02;100798.75;;;19.50;68.05
75886;BME280;64561;44.018;10.144;2023-10-31T11:10:30;100795.22;;;19.54;69.05
75886;BME280;64561;44.018;10.144;2023-10-31T11:12:58;100795.22;;;19.56;66.54
75886;BME280;64561;44.018;10.144;2023-10-31T11:15:26;100801.13;;;19.64;67.07
75886;BME280;64561;44.018;10.144;2023-10-31T11:17:55;100804.66;;;19.64;65.05
75886;BME280;64561;44.018;10.144;2023-10-31T11:20:25;100806.22;;;19.73;66.04
75886;BME280;64561;44.018;10.144;2023-10-31T11:22:55;100813.91;;;19.81;65.48
75886;BME280;64561;44.018;10.144;2023-10-31T11:25:27;100830.50;;;19.72;66.10
75886;BME280;64561;44.018;10.144;2023-10-31T11:28:19;100830.50;;;19.72;67.78
75886;BME280;64561;44.018;10.144;2023-10-31T11:30:50;100833.84;;;19.79;65.50
75886;BME280;64561;44.018;10.144;2023-10-31T11:33:20;100843.44;;;19.77;65.40
75886;BME280;64561;44.018;10.144;2023-10-31T11:35:51;100833.97;;;19.70;66.68
75886;BME280;64561;44.018;10.144;2023-10-31T11:38:36;100842.66;;;19.69;64.95
75886;BME280;64561;44.018;10.144;2023-10-31T11:41:04;100843.66;;;19.55;65.32
75886;BME280;64561;44.018;10.144;2023-10-31T11:43:50;100853.22;;;19.52;63.45
75886;BME280;64561;44.018;10.144;2023-10-31T11:46:25;100856.75;;;19.48;64.91
75886;BME280;64561;44.018;10.144;2023-10-31T11:48:54;100857.56;;;19.51;64.69
75886;BME280;64561;44.018;10.144;2023-10-31T11:51:25;100850.50;;;19.66;66.43
75886;BME280;64561;44.018;10.144;2023-10-31T11:53:52;100854.75;;;19.70;66.15
75886;BME280;64561;44.018;10.144;2023-10-31T11:56:22;100854.03;;;19.57;64.42
75886;BME280;64561;44.018;10.144;2023-10-31T11:58:58;100857.44;;;19.62;65.45
75886;BME280;64561;44.018;10.144;2023-10-31T12:01:26;100859.16;;;19.64;65.57
75886;BME280;64561;44.018;10.144;2023-10-31T12:03:53;100867.78;;;19.67;66.38
75886;BME280;64561;44.018;10.144;2023-10-31T12:06:20;100873.09;;;19.54;67.15
75886;BME280;64561;44.018;10.144;2023-10-31T12:08:49;100881.72;;;19.56;66.19
75886;BME280;64561;44.018;10.144;2023-10-31T12:11:21;100891.13;;;19.68;65.61
75886;BME280;64561;44.018;10.144;2023-10-31T12:14:02;100886.03;;;19.57;63.90
75886;BME280;64561;44.018;10.144;2023-10-31T12:16:34;100886.03;;;19.59;63.93
75886;BME280;64561;44.018;10.144;2023-10-31T12:19:04;100893.22;;;19.34;63.60
75886;BME280;64561;44.018;10.144;2023-10-31T12:21:42;100895.78;;;19.38;64.23
75886;BME280;64561;44.018;10.144;2023-10-31T12:24:15;100895.78;;;19.38;65.77
75886;BME280;64561;44.018;10.144;2023-10-31T12:26:44;100887.94;;;19.43;65.29
75886;BME280;64561;44.018;10.144;2023-10-31T12:29:16;100894.81;;;19.47;65.69
75886;BME280;64561;44.018;10.144;2023-10-31T12:31:53;100902.56;;;19.50;65.34
75886;BME280;64561;44.018;10.144;2023-10-31T12:34:23;100912.88;;;19.56;65.90
75886;BME280;64561;44.018;10.144;2023-10-31T12:36:53;100911.09;;;19.58;64.69
75886;BME280;64561;44.018;10.144;2023-10-31T12:39:25;100915.38;;;19.67;64.71
75886;BME280;64561;44.018;10.144;2023-10-31T12:41:54;100914.53;;;19.63;66.55
75886;BME280;64561;44.018;10.144;2023-10-31T12:44:25;100928.28;;;19.73;66.21
75886;BME280;64561;44.018;10.144;2023-10-31T12:46:55;100926.56;;;19.72;66.39
75886;BME280;64561;44.018;10.144;2023-10-31T12:49:22;100931.72;;;19.75;65.44
75886;BME280;64561;44.018;10.144;2023-10-31T12:52:04;100942.00;;;19.86;64.07
75886;BME280;64561;44.018;10.144;2023-10-31T12:54:34;100928.16;;;19.84;64.39
75886;BME280;64561;44.018;10.144;2023-10-31T12:59:32;100935.09;;;19.83;63.54
75886;BME280;64561;44.018;10.144;2023-10-31T13:02:00;100931.59;;;19.84;66.25